sensor_id;sensor_type;location;lat;lon;timestamp;pressure;altitude;pressure_sealevel;temperature;humidity
75026;BME280;63591;50.080;8.286;2023-02-01T00:01:32;100198.28;;;10.74;60.22
75026;BME280;63591;50.080;8.286;2023-02-01T00:03:57;100198.28;;;10.74;60.21
75026;BME280;63591;50.080;8.286;2023-02-01T00:06:22;100198.28;;;10.74;60.13
75026;BME280;63591;50.080;8.286;2023-02-01T00:08:48;100196.63;;;10.73;60.25
75026;BME280;63591;50.080;8.286;2023-02-01T00:11:13;100194.03;;;10.73;60.20
75026;BME280;63591;50.080;8.286;2023-02-01T00:13:40;100191.41;;;10.73;60.16
75026;BME280;63591;50.080;8.286;2023-02-01T00:16:12;100192.38;;;10.72;60.34
75026;BME280;63591;50.080;8.286;2023-02-01T00:18:38;100190.56;;;10.72;60.35
75026;BME280;63591;50.080;8.286;2023-02-01T00:21:03;100188.75;;;10.73;60.00
75026;BME280;63591;50.080;8.286;2023-02-01T00:23:32;100193.19;;;10.72;60.33
75026;BME280;63591;50.080;8.286;2023-02-01T00:26:01;100196.78;;;10.71;60.30
75026;BME280;63591;50.080;8.286;2023-02-01T00:28:26;100186.13;;;10.73;60.36
75026;BME280;63591;50.080;8.286;2023-02-01T00:30:56;100176.63;;;10.72;60.32
75026;BME280;63591;50.080;8.286;2023-02-01T00:33:22;100176.63;;;10.72;60.33
75026;BME280;63591;50.080;8.286;2023-02-01T00:35:47;100164.44;;;10.71;60.21
75026;BME280;63591;50.080;8.286;2023-02-01T00:38:13;100181.03;;;10.71;60.34
75026;BME280;63591;50.080;8.286;2023-02-01T00:40:38;100180.19;;;10.71;60.37
75026;BME280;63591;50.080;8.286;2023-02-01T00:43:03;100180.19;;;10.71;60.33
75026;BME280;63591;50.080;8.286;2023-02-01T00:45:28;100172.31;;;10.71;60.27
75026;BME280;63591;50.080;8.286;2023-02-01T00:47:54;100179.25;;;10.72;60.32
75026;BME280;63591;50.080;8.286;2023-02-01T00:50:19;100181.88;;;10.72;60.28
75026;BME280;63591;50.080;8.286;2023-02-01T00:52:44;100182.66;;;10.72;60.29
75026;BME280;63591;50.080;8.286;2023-02-01T00:55:09;100181.88;;;10.72;60.33
75026;BME280;63591;50.080;8.286;2023-02-01T00:57:35;100187.94;;;10.72;60.36
75026;BME280;63591;50.080;8.286;2023-02-01T01:00:00;100190.56;;;10.72;60.36
75026;BME280;63591;50.080;8.286;2023-02-01T01:02:26;100187.78;;;10.74;60.41
75026;BME280;63591;50.080;8.286;2023-02-01T01:04:51;100192.09;;;10.75;60.36
75026;BME280;63591;50.080;8.286;2023-02-01T01:07:16;100181.72;;;10.73;60.29
75026;BME280;63591;50.080;8.286;2023-02-01T01:09:42;100185.16;;;10.74;60.38
75026;BME280;63591;50.080;8.286;2023-02-01T01:12:07;100179.91;;;10.74;60.28
75026;BME280;63591;50.080;8.286;2023-02-01T01:14:32;100180.75;;;10.74;60.28
75026;BME280;63591;50.080;8.286;2023-02-01T01:16:57;100179.09;;;10.73;60.30
75026;BME280;63591;50.080;8.286;2023-02-01T01:19:23;100176.47;;;10.73;60.25
75026;BME280;63591;50.080;8.286;2023-02-01T01:21:49;100174.66;;;10.74;60.20
75026;BME280;63591;50.080;8.286;2023-02-01T01:24:14;100168.72;;;10.72;60.18
75026;BME280;63591;50.080;8.286;2023-02-01T01:26:40;100172.31;;;10.71;60.28
75026;BME280;63591;50.080;8.286;2023-02-01T01:29:05;100169.53;;;10.72;60.30
75026;BME280;63591;50.080;8.286;2023-02-01T01:31:31;100181.03;;;10.71;60.22
75026;BME280;63591;50.080;8.286;2023-02-01T01:33:58;100174.94;;;10.71;60.37
75026;BME280;63591;50.080;8.286;2023-02-01T01:36:25;100167.91;;;10.71;60.26
75026;BME280;63591;50.080;8.286;2023-02-01T01:38:51;100169.53;;;10.72;60.32
75026;BME280;63591;50.080;8.286;2023-02-01T01:41:19;100166.13;;;10.72;60.42
75026;BME280;63591;50.080;8.286;2023-02-01T01:43:49;100174.81;;;10.72;60.32
75026;BME280;63591;50.080;8.286;2023-02-01T01:46:17;100167.75;;;10.73;60.35
75026;BME280;63591;50.080;8.286;2023-02-01T01:48:42;100169.41;;;10.74;60.50
75026;BME280;63591;50.080;8.286;2023-02-01T01:51:10;100164.28;;;10.72;60.56
75026;BME280;63591;50.080;8.286;2023-02-01T01:53:46;100168.72;;;10.72;60.43
75026;BME280;63591;50.080;8.286;2023-02-01T01:56:13;100165.97;;;10.73;60.41
75026;BME280;63591;50.080;8.286;2023-02-01T01:58:39;100178.13;;;10.74;60.37
75026;BME280;63591;50.080;8.286;2023-02-01T02:01:04;100172.88;;;10.74;60.41
75026;BME280;63591;50.080;8.286;2023-02-01T02:03:34;100165.00;;;10.74;60.50
75026;BME280;63591;50.080;8.286;2023-02-01T02:06:02;100153.66;;;10.74;60.58
75026;BME280;63591;50.080;8.286;2023-02-01T02:08:28;100143.16;;;10.74;60.56
75026;BME280;63591;50.080;8.286;2023-02-01T02:10:54;100125.75;;;10.73;60.46
75026;BME280;63591;50.080;8.286;2023-02-01T02:13:34;100123.25;;;10.71;60.70
75026;BME280;63591;50.080;8.286;2023-02-01T02:30:17;100128.91;;;10.67;60.68
75026;BME280;63591;50.080;8.286;2023-02-01T02:38:41;100122.56;;;10.69;60.77
75026;BME280;63591;50.080;8.286;2023-02-01T02:41:02;100141.06;;;10.68;60.96
75026;BME280;63591;50.080;8.286;2023-02-01T02:43:48;100140.94;;;10.69;60.74
75026;BME280;63591;50.080;8.286;2023-02-01T02:46:38;100132.78;;;10.72;60.69
75026;BME280;63591;50.080;8.286;2023-02-01T02:49:49;100134.75;;;10.70;60.83
75026;BME280;63591;50.080;8.286;2023-02-01T02:52:41;100121.47;;;10.72;61.02
75026;BME280;63591;50.080;8.286;2023-02-01T02:55:27;100130.16;;;10.72;60.61
75026;BME280;63591;50.080;8.286;2023-02-01T02:57:54;100131.13;;;10.71;60.81
75026;BME280;63591;50.080;8.286;2023-02-01T03:00:40;100139.00;;;10.71;60.72
75026;BME280;63591;50.080;8.286;2023-02-01T03:03:25;100128.50;;;10.71;60.79
75026;BME280;63591;50.080;8.286;2023-02-01T03:06:14;100126.88;;;10.70;60.69
75026;BME280;63591;50.080;8.286;2023-02-01T03:08:41;100120.63;;;10.71;60.81
75026;BME280;63591;50.080;8.286;2023-02-01T03:11:12;100117.16;;;10.71;60.92
75026;BME280;63591;50.080;8.286;2023-02-01T03:14:00;100123.53;;;10.68;60.90
75026;BME280;63591;50.080;8.286;2023-02-01T03:16:32;100119.78;;;10.71;60.87
75026;BME280;63591;50.080;8.286;2023-02-01T03:21:33;100106.66;;;10.71;60.94
75026;BME280;63591;50.080;8.286;2023-02-01T03:24:04;100103.91;;;10.72;60.95
75026;BME280;63591;50.080;8.286;2023-02-01T03:26:37;100099.50;;;10.73;61.00
75026;BME280;63591;50.080;8.286;2023-02-01T03:29:16;100103.09;;;10.72;61.00
75026;BME280;63591;50.080;8.286;2023-02-01T03:31:42;100104.75;;;10.73;60.78
75026;BME280;63591;50.080;8.286;2023-02-01T03:34:09;100098.53;;;10.74;60.94
75026;BME280;63591;50.080;8.286;2023-02-01T03:36:39;100094.25;;;10.73;61.02
75026;BME280;63591;50.080;8.286;2023-02-01T03:41:55;100081.97;;;10.73;61.00
75026;BME280;63591;50.080;8.286;2023-02-01T03:44:26;100089.84;;;10.73;60.97
75026;BME280;63591;50.080;8.286;2023-02-01T03:47:08;100087.22;;;10.73;61.04
75026;BME280;63591;50.080;8.286;2023-02-01T03:49:38;100081.81;;;10.75;60.98
75026;BME280;63591;50.080;8.286;2023-02-01T03:52:08;100079.88;;;10.77;60.83
75026;BME280;63591;50.080;8.286;2023-02-01T03:54:36;100081.81;;;10.75;61.00
75026;BME280;63591;50.080;8.286;2023-02-01T03:57:06;100080.97;;;10.74;60.84
75026;BME280;63591;50.080;8.286;2023-02-01T03:59:32;100093.13;;;10.76;61.01
75026;BME280;63591;50.080;8.286;2023-02-01T04:01:58;100081.97;;;10.73;60.94
75026;BME280;63591;50.080;8.286;2023-02-01T04:04:23;100077.50;;;10.74;61.03
75026;BME280;63591;50.080;8.286;2023-02-01T04:06:49;100090.66;;;10.74;60.94
75026;BME280;63591;50.080;8.286;2023-02-01T04:09:15;100087.06;;;10.75;60.98
75026;BME280;63591;50.080;8.286;2023-02-01T04:11:40;100088.72;;;10.76;60.82
75026;BME280;63591;50.080;8.286;2023-02-01T04:14:05;100084.31;;;10.77;61.42
75026;BME280;63591;50.080;8.286;2023-02-01T04:16:32;100090.38;;;10.77;60.88
75026;BME280;63591;50.080;8.286;2023-02-01T04:18:58;100087.75;;;10.77;60.91
75026;BME280;63591;50.080;8.286;2023-02-01T04:21:24;100085.97;;;10.78;60.83
75026;BME280;63591;50.080;8.286;2023-02-01T04:23:49;100082.50;;;10.77;60.82
75026;BME280;63591;50.080;8.286;2023-02-01T04:26:16;100077.38;;;10.76;60.84
75026;BME280;63591;50.080;8.286;2023-02-01T04:28:41;100085.25;;;10.76;60.99
75026;BME280;63591;50.080;8.286;2023-02-01T04:31:06;100093.84;;;10.78;60.80
75026;BME280;63591;50.080;8.286;2023-02-01T04:33:32;100086.94;;;10.77;60.79
75026;BME280;63591;50.080;8.286;2023-02-01T04:35:57;100087.06;;;10.75;60.86
75026;BME280;63591;50.080;8.286;2023-02-01T04:38:22;100079.47;;;10.72;60.85
75026;BME280;63591;50.080;8.286;2023-02-01T04:40:48;100084.72;;;10.72;61.16
75026;BME280;63591;50.080;8.286;2023-02-01T04:43:13;100083.19;;;10.69;60.98
75026;BME280;63591;50.080;8.286;2023-02-01T04:45:39;100090.38;;;10.67;61.14
75026;BME280;63591;50.080;8.286;2023-02-01T04:48:04;100079.03;;;10.67;61.04
75026;BME280;63591;50.080;8.286;2023-02-01T04:50:30;100087.88;;;10.66;61.03
75026;BME280;63591;50.080;8.286;2023-02-01T04:52:55;100088.88;;;10.65;61.01
75026;BME280;63591;50.080;8.286;2023-02-01T04:55:20;100085.41;;;10.64;61.09
75026;BME280;63591;50.080;8.286;2023-02-01T04:57:46;100076.69;;;10.64;61.08
75026;BME280;63591;50.080;8.286;2023-02-01T05:00:11;100082.91;;;10.63;61.11
75026;BME280;63591;50.080;8.286;2023-02-01T05:02:38;100087.31;;;10.62;60.77
75026;BME280;63591;50.080;8.286;2023-02-01T05:05:03;100098.66;;;10.63;60.90
75026;BME280;63591;50.080;8.286;2023-02-01T05:07:29;100091.75;;;10.61;60.94
75026;BME280;63591;50.080;8.286;2023-02-01T05:09:54;100086.50;;;10.61;60.83
75026;BME280;63591;50.080;8.286;2023-02-01T05:12:19;100079.59;;;10.60;60.95
75026;BME280;63591;50.080;8.286;2023-02-01T05:15:04;100076.81;;;10.62;60.86
75026;BME280;63591;50.080;8.286;2023-02-01T05:17:29;100063.69;;;10.62;60.89
75026;BME280;63591;50.080;8.286;2023-02-01T05:19:55;100069.09;;;10.60;60.87
75026;BME280;63591;50.080;8.286;2023-02-01T05:22:20;100066.47;;;10.60;60.90
75026;BME280;63591;50.080;8.286;2023-02-01T05:24:45;100061.34;;;10.59;60.90
75026;BME280;63591;50.080;8.286;2023-02-01T05:27:11;100065.78;;;10.58;60.95
75026;BME280;63591;50.080;8.286;2023-02-01T05:29:36;100065.66;;;10.60;60.92
75026;BME280;63591;50.080;8.286;2023-02-01T05:32:01;100064.81;;;10.59;60.84
75026;BME280;63591;50.080;8.286;2023-02-01T05:34:27;100075.31;;;10.59;60.90
75026;BME280;63591;50.080;8.286;2023-02-01T05:36:52;100083.19;;;10.59;60.79
75026;BME280;63591;50.080;8.286;2023-02-01T05:39:18;100086.66;;;10.60;61.12
75026;BME280;63591;50.080;8.286;2023-02-01T05:41:44;100077.94;;;10.59;60.64
75026;BME280;63591;50.080;8.286;2023-02-01T05:44:10;100078.78;;;10.60;60.77
75026;BME280;63591;50.080;8.286;2023-02-01T05:46:36;100082.22;;;10.60;60.78
75026;BME280;63591;50.080;8.286;2023-02-01T05:49:02;100074.34;;;10.60;60.71
75026;BME280;63591;50.080;8.286;2023-02-01T05:51:27;100081.41;;;10.60;60.61
75026;BME280;63591;50.080;8.286;2023-02-01T05:53:58;100080.69;;;10.58;60.61
75026;BME280;63591;50.080;8.286;2023-02-01T05:56:24;100073.53;;;10.60;60.64
75026;BME280;63591;50.080;8.286;2023-02-01T05:58:49;100077.94;;;10.59;60.61
75026;BME280;63591;50.080;8.286;2023-02-01T06:01:14;100071.72;;;10.60;60.42
75026;BME280;63591;50.080;8.286;2023-02-01T06:03:40;100069.09;;;10.60;60.54
75026;BME280;63591;50.080;8.286;2023-02-01T06:06:05;100081.41;;;10.60;60.45
75026;BME280;63591;50.080;8.286;2023-02-01T06:08:31;100070.06;;;10.59;60.44
75026;BME280;63591;50.080;8.286;2023-02-01T06:11:04;100080.84;;;10.56;60.31
75026;BME280;63591;50.080;8.286;2023-02-01T06:13:30;100080.69;;;10.58;60.30
75026;BME280;63591;50.080;8.286;2023-02-01T06:15:55;100083.31;;;10.58;60.23
75026;BME280;63591;50.080;8.286;2023-02-01T06:18:22;100084.16;;;10.58;59.94
75026;BME280;63591;50.080;8.286;2023-02-01T06:20:55;100073.78;;;10.57;60.09
75026;BME280;63591;50.080;8.286;2023-02-01T06:23:20;100087.59;;;10.59;60.04
75026;BME280;63591;50.080;8.286;2023-02-01T06:25:49;100089.53;;;10.57;60.00
75026;BME280;63591;50.080;8.286;2023-02-01T06:28:15;100091.34;;;10.56;60.33
75026;BME280;63591;50.080;8.286;2023-02-01T06:30:40;100082.63;;;10.56;59.78
75026;BME280;63591;50.080;8.286;2023-02-01T06:33:08;100092.97;;;10.57;60.22
75026;BME280;63591;50.080;8.286;2023-02-01T06:35:33;100099.06;;;10.58;59.82
75026;BME280;63591;50.080;8.286;2023-02-01T06:37:58;100087.88;;;10.56;60.10
75026;BME280;63591;50.080;8.286;2023-02-01T06:40:24;100084.44;;;10.55;59.85
75026;BME280;63591;50.080;8.286;2023-02-01T06:42:49;100094.78;;;10.57;59.69
75026;BME280;63591;50.080;8.286;2023-02-01T06:45:15;100081.81;;;10.55;59.64
75026;BME280;63591;50.080;8.286;2023-02-01T06:47:40;100071.31;;;10.55;59.74
75026;BME280;63591;50.080;8.286;2023-02-01T06:50:06;100081.94;;;10.54;59.31
75026;BME280;63591;50.080;8.286;2023-02-01T06:52:31;100075.72;;;10.55;59.44
75026;BME280;63591;50.080;8.286;2023-02-01T06:54:56;100075.03;;;10.53;59.52
75026;BME280;63591;50.080;8.286;2023-02-01T06:57:22;100077.66;;;10.53;59.38
75026;BME280;63591;50.080;8.286;2023-02-01T06:59:47;100082.91;;;10.53;59.03
75026;BME280;63591;50.080;8.286;2023-02-01T07:02:12;100093.41;;;10.53;59.25
75026;BME280;63591;50.080;8.286;2023-02-01T07:04:38;100082.09;;;10.52;59.31
75026;BME280;63591;50.080;8.286;2023-02-01T07:07:03;100073.50;;;10.50;59.28
75026;BME280;63591;50.080;8.286;2023-02-01T07:09:28;100076.13;;;10.50;59.10
75026;BME280;63591;50.080;8.286;2023-02-01T07:11:54;100069.22;;;10.49;59.20
75026;BME280;63591;50.080;8.286;2023-02-01T07:14:19;100071.84;;;10.49;59.15
75026;BME280;63591;50.080;8.286;2023-02-01T07:16:44;100076.25;;;10.48;58.84
75026;BME280;63591;50.080;8.286;2023-02-01T07:19:09;100073.63;;;10.48;58.88
75026;BME280;63591;50.080;8.286;2023-02-01T07:21:35;100059.72;;;10.48;58.91
75026;BME280;63591;50.080;8.286;2023-02-01T07:24:00;100070.19;;;10.48;58.66
75026;BME280;63591;50.080;8.286;2023-02-01T07:26:25;100075.31;;;10.49;58.62
75026;BME280;63591;50.080;8.286;2023-02-01T07:28:51;100076.25;;;10.48;58.47
75026;BME280;63591;50.080;8.286;2023-02-01T07:31:18;100084.13;;;10.48;58.37
75026;BME280;63591;50.080;8.286;2023-02-01T07:33:46;100084.13;;;10.48;58.35
75026;BME280;63591;50.080;8.286;2023-02-01T07:36:13;100095.47;;;10.49;58.17
75026;BME280;63591;50.080;8.286;2023-02-01T07:38:39;100099.75;;;10.50;58.13
75026;BME280;63591;50.080;8.286;2023-02-01T07:41:05;100105.00;;;10.50;58.31
75026;BME280;63591;50.080;8.286;2023-02-01T07:43:31;100115.50;;;10.50;58.21
75026;BME280;63591;50.080;8.286;2023-02-01T07:45:57;100110.25;;;10.50;58.11
75026;BME280;63591;50.080;8.286;2023-02-01T07:48:23;100111.22;;;10.49;58.25
75026;BME280;63591;50.080;8.286;2023-02-01T07:51:00;100120.88;;;10.48;57.98
75026;BME280;63591;50.080;8.286;2023-02-01T07:53:26;100112.06;;;10.49;58.31
75026;BME280;63591;50.080;8.286;2023-02-01T07:55:52;100115.50;;;10.50;58.19
75026;BME280;63591;50.080;8.286;2023-02-01T07:58:17;100105.97;;;10.49;58.11
75026;BME280;63591;50.080;8.286;2023-02-01T08:00:42;100105.97;;;10.49;58.52
75026;BME280;63591;50.080;8.286;2023-02-01T08:03:26;100110.25;;;10.50;58.18
75026;BME280;63591;50.080;8.286;2023-02-01T08:05:55;100113.84;;;10.49;58.20
75026;BME280;63591;50.080;8.286;2023-02-01T08:08:21;100115.50;;;10.50;58.19
75026;BME280;63591;50.080;8.286;2023-02-01T08:10:46;100118.13;;;10.50;58.31
75026;BME280;63591;50.080;8.286;2023-02-01T08:13:12;100122.56;;;10.49;58.05
75026;BME280;63591;50.080;8.286;2023-02-01T08:15:37;100119.94;;;10.49;58.05
75026;BME280;63591;50.080;8.286;2023-02-01T08:18:02;100127.81;;;10.49;58.16
75026;BME280;63591;50.080;8.286;2023-02-01T08:20:28;100126.13;;;10.48;58.05
75026;BME280;63591;50.080;8.286;2023-02-01T08:22:53;100134.84;;;10.49;57.79
75026;BME280;63591;50.080;8.286;2023-02-01T08:25:19;100139.13;;;10.50;58.09
75026;BME280;63591;50.080;8.286;2023-02-01T08:27:45;100131.25;;;10.50;57.79
75026;BME280;63591;50.080;8.286;2023-02-01T08:30:11;100127.81;;;10.49;58.18
75026;BME280;63591;50.080;8.286;2023-02-01T08:32:36;100146.19;;;10.49;58.09
75026;BME280;63591;50.080;8.286;2023-02-01T08:35:06;100150.59;;;10.49;57.92
75026;BME280;63591;50.080;8.286;2023-02-01T08:37:31;100148.81;;;10.49;57.88
75026;BME280;63591;50.080;8.286;2023-02-01T08:39:57;100159.31;;;10.49;57.78
75026;BME280;63591;50.080;8.286;2023-02-01T08:42:22;100162.75;;;10.50;57.92
75026;BME280;63591;50.080;8.286;2023-02-01T08:45:07;100164.41;;;10.51;57.93
75026;BME280;63591;50.080;8.286;2023-02-01T08:47:35;100169.66;;;10.51;57.80
75026;BME280;63591;50.080;8.286;2023-02-01T08:50:00;100155.72;;;10.51;57.93
75026;BME280;63591;50.080;8.286;2023-02-01T08:52:26;100158.34;;;10.51;57.92
75026;BME280;63591;50.080;8.286;2023-02-01T08:54:51;100161.78;;;10.51;57.82
75026;BME280;63591;50.080;8.286;2023-02-01T08:57:16;100151.28;;;10.51;57.81
75026;BME280;63591;50.080;8.286;2023-02-01T08:59:42;100153.09;;;10.51;57.84
75026;BME280;63591;50.080;8.286;2023-02-01T09:02:12;100169.66;;;10.51;57.63
75026;BME280;63591;50.080;8.286;2023-02-01T09:04:37;100159.16;;;10.51;57.69
75026;BME280;63591;50.080;8.286;2023-02-01T09:07:03;100164.28;;;10.53;57.63
75026;BME280;63591;50.080;8.286;2023-02-01T09:09:28;100155.56;;;10.52;57.68
75026;BME280;63591;50.080;8.286;2023-02-01T09:11:53;100170.34;;;10.53;57.91
75026;BME280;63591;50.080;8.286;2023-02-01T09:14:19;100168.44;;;10.55;57.71
75026;BME280;63591;50.080;8.286;2023-02-01T09:16:44;100181.56;;;10.55;57.61
75026;BME280;63591;50.080;8.286;2023-02-01T09:19:09;100186.66;;;10.57;57.61
75026;BME280;63591;50.080;8.286;2023-02-01T09:21:35;100183.34;;;10.55;57.51
75026;BME280;63591;50.080;8.286;2023-02-01T09:24:00;100178.94;;;10.55;57.53
75026;BME280;63591;50.080;8.286;2023-02-01T09:26:26;100193.69;;;10.56;57.75
75026;BME280;63591;50.080;8.286;2023-02-01T09:28:52;100197.97;;;10.57;57.45
75026;BME280;63591;50.080;8.286;2023-02-01T09:31:18;100205.84;;;10.57;57.57
75026;BME280;63591;50.080;8.286;2023-02-01T09:33:43;100201.56;;;10.56;57.42
75026;BME280;63591;50.080;8.286;2023-02-01T09:36:09;100210.28;;;10.57;57.40
75026;BME280;63591;50.080;8.286;2023-02-01T09:38:34;100214.69;;;10.56;57.37
75026;BME280;63591;50.080;8.286;2023-02-01T09:40:59;100229.75;;;10.54;57.39
75026;BME280;63591;50.080;8.286;2023-02-01T09:44:00;100217.59;;;10.53;57.25
75026;BME280;63591;50.080;8.286;2023-02-01T09:46:24;100226.03;;;10.57;57.41
75026;BME280;63591;50.080;8.286;2023-02-01T09:48:55;100232.09;;;10.57;57.32
75026;BME280;63591;50.080;8.286;2023-02-01T09:51:24;100232.09;;;10.57;57.23
75026;BME280;63591;50.080;8.286;2023-02-01T09:53:59;100228.81;;;10.55;57.27
75026;BME280;63591;50.080;8.286;2023-02-01T09:56:35;100223.56;;;10.55;57.27
75026;BME280;63591;50.080;8.286;2023-02-01T09:59:24;100220.78;;;10.57;57.12
75026;BME280;63591;50.080;8.286;2023-02-01T10:01:52;100218.03;;;10.58;57.23
75026;BME280;63591;50.080;8.286;2023-02-01T10:04:18;100205.84;;;10.57;57.30
75026;BME280;63591;50.080;8.286;2023-02-01T10:09:16;100208.63;;;10.56;57.33
75026;BME280;63591;50.080;8.286;2023-02-01T10:11:59;100215.53;;;10.57;57.32
75026;BME280;63591;50.080;8.286;2023-02-01T10:17:28;100217.59;;;10.53;57.11
75026;BME280;63591;50.080;8.286;2023-02-01T10:20:20;100205.19;;;10.55;57.15
75026;BME280;63591;50.080;8.286;2023-02-01T10:25:54;100199.78;;;10.57;57.17
75026;BME280;63591;50.080;8.286;2023-02-01T10:28:21;100202.28;;;10.58;57.20
75026;BME280;63591;50.080;8.286;2023-02-01T10:30:54;100205.84;;;10.57;57.30
75026;BME280;63591;50.080;8.286;2023-02-01T10:33:25;100203.94;;;10.59;57.33
75026;BME280;63591;50.080;8.286;2023-02-01T10:35:55;100204.91;;;10.58;57.26
75026;BME280;63591;50.080;8.286;2023-02-01T10:38:31;100205.03;;;10.57;57.26
75026;BME280;63591;50.080;8.286;2023-02-01T10:41:03;100203.94;;;10.59;57.41
75026;BME280;63591;50.080;8.286;2023-02-01T10:43:32;100197.72;;;10.60;57.33
75026;BME280;63591;50.080;8.286;2023-02-01T10:45:59;100193.31;;;10.61;57.33
75026;BME280;63591;50.080;8.286;2023-02-01T10:48:24;100187.34;;;10.59;57.41
75026;BME280;63591;50.080;8.286;2023-02-01T10:50:57;100182.09;;;10.59;57.30
75026;BME280;63591;50.080;8.286;2023-02-01T10:53:28;100176.72;;;10.60;57.45
75026;BME280;63591;50.080;8.286;2023-02-01T10:55:56;100160.97;;;10.60;57.20
75026;BME280;63591;50.080;8.286;2023-02-01T10:58:31;100161.94;;;10.59;57.25
75026;BME280;63591;50.080;8.286;2023-02-01T11:01:00;100172.16;;;10.63;57.39
75026;BME280;63591;50.080;8.286;2023-02-01T11:03:39;100161.66;;;10.63;57.47
75026;BME280;63591;50.080;8.286;2023-02-01T11:08:47;100144.28;;;10.61;57.34
75026;BME280;63591;50.080;8.286;2023-02-01T11:11:13;100164.16;;;10.64;57.22
75026;BME280;63591;50.080;8.286;2023-02-01T11:13:39;100145.91;;;10.63;57.21
75026;BME280;63591;50.080;8.286;2023-02-01T11:16:05;100142.44;;;10.62;57.03
75026;BME280;63591;50.080;8.286;2023-02-01T11:18:35;100143.28;;;10.63;57.22
75026;BME280;63591;50.080;8.286;2023-02-01T11:21:01;100141.38;;;10.65;57.28
75026;BME280;63591;50.080;8.286;2023-02-01T11:23:29;100141.50;;;10.63;57.10
75026;BME280;63591;50.080;8.286;2023-02-01T11:26:00;100137.91;;;10.64;57.26
75026;BME280;63591;50.080;8.286;2023-02-01T11:28:30;100131.81;;;10.64;57.12
75026;BME280;63591;50.080;8.286;2023-02-01T11:31:02;100128.25;;;10.65;57.15
75026;BME280;63591;50.080;8.286;2023-02-01T11:33:34;100128.25;;;10.65;57.31
75026;BME280;63591;50.080;8.286;2023-02-01T11:36:07;100133.50;;;10.65;56.88
75026;BME280;63591;50.080;8.286;2023-02-01T11:38:34;100136.00;;;10.66;57.39
75026;BME280;63591;50.080;8.286;2023-02-01T11:41:24;100144.28;;;10.61;57.03
75026;BME280;63591;50.080;8.286;2023-02-01T11:46:22;100136.94;;;10.65;57.26
75026;BME280;63591;50.080;8.286;2023-02-01T11:48:51;100145.78;;;10.64;57.22
75026;BME280;63591;50.080;8.286;2023-02-01T11:51:27;100126.69;;;10.62;57.36
75026;BME280;63591;50.080;8.286;2023-02-01T11:54:34;100125.06;;;10.61;57.35
75026;BME280;63591;50.080;8.286;2023-02-01T11:57:05;100133.63;;;10.63;57.12
75026;BME280;63591;50.080;8.286;2023-02-01T11:59:53;100131.00;;;10.63;57.15
75026;BME280;63591;50.080;8.286;2023-02-01T12:02:43;100116.06;;;10.64;57.20
75026;BME280;63591;50.080;8.286;2023-02-01T12:05:50;100109.16;;;10.63;57.04
75026;BME280;63591;50.080;8.286;2023-02-01T12:11:11;100106.53;;;10.63;57.14
75026;BME280;63591;50.080;8.286;2023-02-01T12:16:47;100096.03;;;10.63;57.19
75026;BME280;63591;50.080;8.286;2023-02-01T12:19:26;100101.16;;;10.64;57.07
75026;BME280;63591;50.080;8.286;2023-02-01T12:22:20;100094.38;;;10.61;57.33
75026;BME280;63591;50.080;8.286;2023-02-01T12:25:06;100103.91;;;10.63;57.27
75026;BME280;63591;50.080;8.286;2023-02-01T12:28:04;100097.81;;;10.62;57.38
75026;BME280;63591;50.080;8.286;2023-02-01T12:33:35;100092.56;;;10.62;57.09
75026;BME280;63591;50.080;8.286;2023-02-01T12:36:13;100092.31;;;10.65;57.33
75026;BME280;63591;50.080;8.286;2023-02-01T12:41:36;100089.81;;;10.64;57.32
75026;BME280;63591;50.080;8.286;2023-02-01T12:46:46;100063.44;;;10.65;57.45
75026;BME280;63591;50.080;8.286;2023-02-01T12:49:33;100062.75;;;10.63;57.36
75026;BME280;63591;50.080;8.286;2023-02-01T12:52:09;100071.16;;;10.67;57.27
75026;BME280;63591;50.080;8.286;2023-02-01T12:54:48;100072.00;;;10.67;57.33
75026;BME280;63591;50.080;8.286;2023-02-01T12:57:19;100075.31;;;10.69;57.40
75026;BME280;63591;50.080;8.286;2023-02-01T13:00:25;100068.25;;;10.70;57.34
75026;BME280;63591;50.080;8.286;2023-02-01T13:03:00;100051.66;;;10.69;57.40
75026;BME280;63591;50.080;8.286;2023-02-01T13:05:34;100051.53;;;10.71;57.28
75026;BME280;63591;50.080;8.286;2023-02-01T13:08:14;100053.34;;;10.70;57.22
75026;BME280;63591;50.080;8.286;2023-02-01T13:10:56;100057.63;;;10.71;57.27
75026;BME280;63591;50.080;8.286;2023-02-01T13:13:33;100057.63;;;10.71;57.12
75026;BME280;63591;50.080;8.286;2023-02-01T13:16:15;100064.53;;;10.72;57.17
75026;BME280;63591;50.080;8.286;2023-02-01T13:18:46;100066.88;;;10.76;57.20
75026;BME280;63591;50.080;8.286;2023-02-01T13:21:31;100069.78;;;10.72;57.09
75026;BME280;63591;50.080;8.286;2023-02-01T13:23:58;100063.31;;;10.77;57.02
75026;BME280;63591;50.080;8.286;2023-02-01T13:26:23;100065.22;;;10.74;57.14
75026;BME280;63591;50.080;8.286;2023-02-01T13:28:57;100067.00;;;10.74;57.15
75026;BME280;63591;50.080;8.286;2023-02-01T13:34:36;100053.06;;;10.73;56.89
75026;BME280;63591;50.080;8.286;2023-02-01T13:37:17;100052.94;;;10.75;56.99
75026;BME280;63591;50.080;8.286;2023-02-01T13:42:25;100053.59;;;10.77;56.66
75026;BME280;63591;50.080;8.286;2023-02-01T13:44:58;100057.22;;;10.76;56.98
75026;BME280;63591;50.080;8.286;2023-02-01T13:49:57;100057.91;;;10.78;56.94
75026;BME280;63591;50.080;8.286;2023-02-01T13:52:44;100062.19;;;10.79;56.93
75026;BME280;63591;50.080;8.286;2023-02-01T13:57:45;100063.84;;;10.80;57.05
75026;BME280;63591;50.080;8.286;2023-02-01T14:00:24;100061.50;;;10.77;57.03
75026;BME280;63591;50.080;8.286;2023-02-01T14:10:54;100052.81;;;10.77;56.77
75026;BME280;63591;50.080;8.286;2023-02-01T14:13:39;100046.44;;;10.79;56.56
75026;BME280;63591;50.080;8.286;2023-02-01T14:21:33;100029.31;;;10.75;56.55